Four Corners Regional Airport
KFMN : rendu visible

Aérodrome :











RETROUVEZ-NOUS SUR...

 
LOGIN :

S'inscrire | Disclaimer

   EN    FR    IT 

 









Légende :    VFR   VFR Marginal   IFR   IFR Intensif   IFR Très Intensif
Visi : 
Plafond : 
>= 8 km
>= 3000ft
5 à 8 km
1000 à 3000 ft
1500m à 5 km
500 à 1000 ft
800 à 1500m
200 à 500 ft
< 800m
< 200 ft
Symboles :   Orages  Brouillard  Fortes neiges  Fortes précipitations  Vent > 20 kt







- Altitude de l'aérodrome : 5506 ft


KFMN - Four Corners Regional

DERNIER METAR :
  • 241053Z AUTO 00000KT 10SM CLR 14/M03 A3010 RMK AO2 SLP127 T01441028

METARs EXPIRÉS :
  • 240953Z AUTO 04006KT 10SM CLR 13/M03 A3009 RMK AO2 SLP126 T01331028
  • 240853Z AUTO 03004KT 10SM CLR 15/M03 A3008 RMK AO2 SLP120 T01501033 50005

TAF KFMN
Valide du 24 à 12h jusqu'au 25 à 12h UTC


241128Z 2412/2512 08006KT P6SM SKC
FM241800 28014G24KT P6SM SKC
FM250200 30007KT P6SM SKC
Pas de NOTAMs connus pour ce terrain.



MET'MAP, la Météo Aéronautique d'un coup d'oeil ! - Copyright ORBIFLY Décembre 2007 - Disclaimer

ORBIFLY MET'MAP TEAM :

Programmation & Développement : Alexandra Zaïnal
Conception & Développement : Baudouin d'Aumeries
Co-Programmation & Développement : Marc-Olivier Méhu
Soutien technique & logistique : Manuel Goepfert

Contact : metmap@orbifly.com




SOURCES & CREDITS :

   NOAA       Earth
Advisory